Airfield :
LOGIN :

Register | Disclaimer

   EN    FR    IT 

 










Legend :    VFR   Marginal VFR   IFR   Intensive IFR   Very Intensive IFR
Visi :
Ceiling :
>= 8 km
>= 3000ft
5 to 8 km
1000 to 3000 ft
1500m to 5 km
500 to 1000 ft
800 to 1500m
200 to 500 ft
< 800m
< 200 ft
Symbols :   Thunderstorms  Fog  Heavy snow  Heavy precipitations  Wind > 20 kt
SIGMETs :     Misc.  Thunderstorms  Icing  Turbulence  Mountain Waves  Volcanic Ashes






- Airport Elevation : 82 ft
- IATA code : AAR


EKAH - Aarhus Tirstrup

CURRENT METAR :
  • 021250Z AUTO 25020G33KT 210V280 9999NDV BKN029/// 09/03 Q0997

EXPIRED METARs :
  • 021220Z AUTO 24019G31KT 200V280 9999NDV BKN032/// 09/03 Q0998
  • 021150Z AUTO 25019G35KT 220V290 9999NDV BKN034/// 10/03 Q0998
  • 021120Z AUTO 25015G26KT 210V280 9999NDV BKN029/// 10/03 Q0999
  • 021050Z AUTO 25016G29KT 210V290 9999NDV BKN027/// 09/04 Q0999
  • 021020Z AUTO 25016KT 200V280 9999NDV BKN029/// 09/04 Q1000

Expired Forecast.



MET'MAP, your aeronautical weather chart ! - Copyright ORBIFLY December 2007 - Disclaimer

ORBIFLY MET'MAP TEAM :

Programming & Development : Alexandra Zaïnal
Concept & original design : Baudouin d'Aumeries
Assistance for programming : Marc-Olivier Méhu
Technical & hardware support : Manuel Goepfert

Contact : metmap@orbifly.com




SOURCES & CREDITS :

   NOAA